Flight Track Log - Related Links

Times and Time Zones

All times are in EDT time to prevent confusion due to time zone crossing. See the EJA941 flight status page for this flight to view local times or setup timezone preferences in your user account.

Time Position Orientation Groundspeed Altitude Reporting Facility
EDT Latitude Longitude Course Direction KTS MPH feet Rate Location/Type
Thu 04:16:07 PM 34.7178 -92.2444 161° South 165 190 600  Level Memphis Center
Thu 04:16:44 PM 34.6867 -92.2311 161° South 190 219 2,300 2,969 Climbing Memphis Center
Thu 04:17:44 PM 34.6264 -92.2072 162° South 249 287 5,400 11,903 Climbing Memphis Center
Thu 04:19:49 PM 34.5828 -92.0625 110° East 232 267 39,000 2,984 Climbing Memphis Center
Thu 04:20:49 PM 34.6300 -91.9497 63° Northeast 266 306 14,600 -12,000 Descending Memphis Center
Thu 04:21:49 PM 34.6794 -91.8344 62° Northeast 329 379 15,000 500 Climbing Memphis Center
Thu 04:22:49 PM 34.7244 -91.7242 64° Northeast 380 437 15,600 1,300 Climbing Memphis Center
Thu 04:23:49 PM 34.7447 -91.5906 79° East 398 458 17,600 1,700 Climbing Memphis Center
Thu 04:24:49 PM 34.7667 -91.4619 78° East 393 452 19,000 1,400 Climbing Memphis Center
Thu 04:26:49 PM 34.8125 -91.2019 78° East 394 453 21,800 1,333 Climbing Memphis Center
Thu 04:27:49 PM 34.8342 -91.0706 79° East 394 453 23,000 650 Climbing Memphis Center
Thu 04:28:49 PM 34.8581 -90.9267 79° East 413 475 23,100 700 Climbing Memphis Center
Thu 04:29:49 PM 34.8856 -90.7697 78° East 422 486 24,400 1,000 Climbing Memphis Center
Thu 04:30:49 PM 34.9111 -90.6231 78° East 433 498 25,100 1,000 Climbing Memphis Center
Thu 04:31:49 PM 34.9364 -90.4736 78° East 438 504 26,400 1,300 Climbing Memphis Center
Thu 04:32:49 PM 34.9614 -90.3267 78° East 438 504 27,700 1,300 Climbing Memphis Center
Thu 04:33:49 PM 34.9864 -90.1797 78° East 438 504 29,000 1,300 Climbing Memphis Center
Thu 04:34:49 PM 35.0111 -90.0300 79° East 443 510 30,300 1,300 Climbing Memphis Center
Thu 04:35:49 PM 35.0564 -89.8828 69° East 457 526 31,600 1,100 Climbing Memphis Center
Thu 04:36:49 PM 35.1019 -89.7531 67° East 467 537 32,500 1,200 Climbing Memphis Center
Thu 04:37:49 PM 35.1511 -89.6078 67° East 472 543 34,000 1,500 Climbing Memphis Center
Thu 04:38:49 PM 35.2044 -89.4625 66° East 466 536 35,500 1,500 Climbing Memphis Center
Thu 04:39:49 PM 35.2572 -89.3069 67° East 461 531 37,000 1,500 Climbing Memphis Center
Thu 04:40:49 PM 35.3081 -89.1611 67° East 456 525 38,500 1,000 Climbing Memphis Center
Thu 04:41:49 PM 35.3567 -89.0178 67° East 450 518 39,000 250 Climbing Memphis Center
Thu 04:42:49 PM 35.4094 -88.8694 66° East 458 527 39,000  Level Memphis Center
Thu 04:43:49 PM 35.4475 -88.7464 69° East 452 520 39,000  Level Memphis Center
Thu 04:44:49 PM 35.4975 -88.6050 66° East 445 512 39,000  Level Memphis Center
Thu 04:45:49 PM 35.5456 -88.4689 67° East 440 506 39,000  Level Memphis Center
Thu 04:46:49 PM 35.5956 -88.3222 67° East 440 506 39,000  Level Memphis Center
Thu 04:47:49 PM 35.6431 -88.1831 67° East 446 513 39,000  Level Memphis Center
Thu 04:48:49 PM 35.6969 -88.0358 66° East 433 498 39,000  Level Memphis Center
Thu 04:49:49 PM 35.7419 -87.8914 69° East 438 504 39,000  Level Memphis Center
Thu 04:50:49 PM 35.7892 -87.7492 68° East 444 511 39,000  Level Memphis Center
Thu 04:51:49 PM 35.8381 -87.6017 68° East 454 522 39,000  Level Memphis Center
Thu 04:52:49 PM 35.8850 -87.4592 68° East 454 522 39,000  Level Memphis Center
Thu 04:53:49 PM 35.9336 -87.3114 68° East 454 522 39,000  Level Memphis Center
Thu 04:54:49 PM 35.9797 -87.1636 69° East 459 528 39,000  Level Memphis Center
Thu 04:55:49 PM 36.0281 -87.0128 68° East 459 528 39,000  Level Memphis Center
Thu 04:56:49 PM 36.0758 -86.8619 69° East 459 528 39,000  Level Memphis Center
Thu 04:57:49 PM 36.1258 -86.7081 68° East 464 534 39,000  Level Memphis Center
Thu 04:58:49 PM 36.1753 -86.5542 68° East 472 543 39,000  Level Memphis Center
Thu 04:59:49 PM 36.2247 -86.4053 68° East 472 543 39,000  Level Memphis Center
Thu 05:01:27 PM 36.2994 -86.1817 67° East 474 545 39,000  Level Indianapolis Center
Thu 05:02:29 PM 36.3478 -86.0300 68° East 470 541 39,000  Level Indianapolis Center
Thu 05:03:31 PM 36.4056 -85.8506 68° East 477 549 39,000  Level Indianapolis Center
Thu 05:04:33 PM 36.4506 -85.7075 69° East 477 549 39,000  Level Indianapolis Center
Thu 05:05:35 PM 36.4997 -85.5536 68° East 479 551 39,000  Level Indianapolis Center
Thu 05:06:37 PM 36.5464 -85.4000 69° East 474 545 39,000  Level Indianapolis Center
Thu 05:07:39 PM 36.6033 -85.2144 69° East 476 548 39,000  Level Indianapolis Center
Thu 05:08:41 PM 36.6511 -85.0594 69° East 478 550 39,000  Level Indianapolis Center
Thu 05:09:43 PM 36.7003 -84.9042 68° East 480 552 39,000  Level Indianapolis Center
Thu 05:10:45 PM 36.7464 -84.7458 70° East 483 556 39,000  Level Indianapolis Center
Thu 05:11:47 PM 36.7944 -84.5914 69° East 478 550 39,000  Level Indianapolis Center
Thu 05:12:49 PM 36.8433 -84.4311 69° East 475 547 39,000  Level Indianapolis Center
Thu 05:13:52 PM 36.8897 -84.2753 70° East 476 548 39,000  Level Indianapolis Center
Thu 05:14:53 PM 36.9442 -84.0922 70° East 476 548 39,000  Level Indianapolis Center
Thu 05:15:55 PM 36.9897 -83.9356 70° East 479 551 39,000  Level Indianapolis Center
Thu 05:16:58 PM 37.0367 -83.7794 69° East 476 548 39,000  Level Indianapolis Center
Thu 05:18:00 PM 37.0828 -83.6228 70° East 478 550 39,000  Level Indianapolis Center
Thu 05:19:02 PM 37.1294 -83.4647 70° East 481 554 39,000  Level Indianapolis Center
Thu 05:20:04 PM 37.1756 -83.3075 70° East 478 550 39,000  Level Indianapolis Center
Thu 05:21:06 PM 37.2200 -83.1519 70° East 473 544 39,000  Level Indianapolis Center
Thu 05:22:08 PM 37.2725 -82.9714 70° East 468 539 39,000  Level Indianapolis Center
Thu 05:23:10 PM 37.3169 -82.8139 70° East 474 545 39,000  Level Indianapolis Center
Thu 05:24:12 PM 37.3622 -82.6556 70° East 479 551 39,000  Level Indianapolis Center
Thu 05:25:14 PM 37.4058 -82.4947 71° East 482 555 39,000  Level Indianapolis Center
Thu 05:26:16 PM 37.4506 -82.3381 70° East 477 549 39,000  Level Indianapolis Center
Thu 05:27:18 PM 37.4933 -82.1836 71° East 468 539 39,000  Level Indianapolis Center
Thu 05:28:20 PM 37.5419 -82.0056 71° East 461 531 39,000  Level Indianapolis Center
Thu 05:29:22 PM 37.5517 -81.8414 86° East 475 547 39,000  Level Indianapolis Center
Thu 05:30:24 PM 37.5542 -81.6717 89° East 482 555 39,000  Level Indianapolis Center
Thu 05:31:27 PM 37.5567 -81.4997 89° East 490 564 39,000  Level Indianapolis Center
Thu 05:32:29 PM 37.5572 -81.3353 90° East 491 565 39,000  Level Indianapolis Center
Thu 05:33:31 PM 37.5575 -81.1331 90° East 495 570 39,000  Level Indianapolis Center
Thu 05:34:33 PM 37.5578 -80.9669 90° East 490 564 39,000  Level Indianapolis Center
Thu 05:35:35 PM 37.5592 -80.8019 89° East 487 560 39,000  Level Indianapolis Center
Thu 05:36:37 PM 37.5589 -80.6075 90° East 477 549 39,000  Level Indianapolis Center
Thu 05:37:24 PM 37.5564 -80.4778 91° East 476 548 39,000  Level Washington Center
Thu 05:38:25 PM 37.5567 -80.3128 90° East 476 548 39,000  Level Washington Center
Thu 05:39:26 PM 37.5561 -80.1658 90° East 476 548 39,000  Level Washington Center
Thu 05:40:24 PM 37.5542 -80.0008 91° East 476 548 39,000  Level Washington Center
Thu 05:41:25 PM 37.5544 -79.8147 90° East 476 548 39,000 -347 Level Washington Center
Thu 05:42:25 PM 37.5519 -79.6522 91° East 476 548 38,300 -800 Descending Washington Center
Thu 05:43:25 PM 37.5508 -79.4897 90° East 465 535 37,400 -1,289 Descending Washington Center
Thu 05:44:26 PM 37.5500 -79.3247 90° East 465 535 35,700 -1,636 Descending Washington Center
Thu 05:45:26 PM 37.5500 -79.1911 90° East 465 535 34,100 -864 Descending Washington Center
Thu 05:46:24 PM 37.5436 -78.9786 92° East 482 555 34,000 -51 Descending Washington Center
Thu 05:47:24 PM 37.5400 -78.8081 91° East 488 562 34,000 -298 Level Washington Center
Thu 05:48:25 PM 37.5383 -78.6300 91° East 494 568 33,400 -1,180 Descending Washington Center
Thu 05:49:26 PM 37.5358 -78.4806 91° East 494 568 31,600 -1,785 Descending Washington Center
Thu 05:50:26 PM 37.5314 -78.3128 92° East 488 562 29,800 -1,780 Descending Washington Center
Thu 05:51:24 PM 37.5247 -78.1397 93° East 488 562 28,100 -1,361 Descending Washington Center
Thu 05:52:25 PM 37.5200 -77.9642 92° East 488 562 27,100 -1,623 Descending Washington Center
Thu 05:53:26 PM 37.5169 -77.7886 91° East 498 573 24,800 -1,966 Descending Washington Center
Thu 05:54:24 PM 37.5839 -77.6569 57° Northeast 437 503 23,200 -1,412 Descending Washington Center
Thu 05:55:25 PM 37.7039 -77.5997 21° North 411 473 22,000 -1,082 Descending Washington Center
Thu 05:56:26 PM 37.8214 -77.5581 16° North 419 482 21,000 -1,008 Descending Washington Center
Thu 05:57:24 PM 37.9267 -77.4872 28° Northeast 419 482 20,000 -1,068 Descending Washington Center
Thu 05:58:24 PM 38.0344 -77.4081 30° Northeast 431 496 18,900 -1,041 Descending Washington Center
Thu 05:59:25 PM 38.1378 -77.3289 31° Northeast 431 496 17,900 -1,082 Descending Washington Center
Thu 06:00:26 PM 38.2389 -77.2492 32° Northeast 431 496 16,700 -1,190 Descending Washington Center
Thu 06:01:26 PM 38.3400 -77.1719 31° Northeast 431 496 15,500 -1,373 Descending Washington Center
Thu 06:02:24 PM 38.4331 -77.0814 37° Northeast 426 490 14,000 -1,714 Descending Washington Center
Thu 06:03:25 PM 38.5133 -76.9794 45° Northeast 414 476 12,100 -1,537 Descending Washington Center
Thu 06:04:25 PM 38.5875 -76.8906 43° Northeast 388 447 10,900 -1,091 Descending Washington Center
Thu 06:05:26 PM 38.6486 -76.8144 44° Northeast 340 391 9,900 -942 Descending Washington Center
Thu 06:06:26 PM 38.7056 -76.7408 45° Northeast 303 349 9,000 -1,169 Descending Washington Center
Thu 06:07:24 PM 38.7461 -76.6483 61° Northeast 324 373 7,600 -1,551 Descending Washington Center
Thu 06:07:55 PM 38.7667 -76.5833 68° East 294 338 6,700 -1,385 Descending Potomac TRACON
Thu 06:08:55 PM 38.8333 -76.5333 30° Northeast 269 310 5,500 -1,286 Descending Potomac TRACON
Thu 06:10:01 PM 38.9167 -76.5000 17° North 265 305 4,000 -1,190 Descending Potomac TRACON
Thu 06:11:01 PM 38.9833 -76.5000 360° North 251 289 3,000 -1,043 Descending Potomac TRACON
Thu 06:11:56 PM 39.0333 -76.5167 345° North 234 269 2,000 -522 Descending Potomac TRACON
Thu 06:12:56 PM 39.0833 -76.5667 322° Northwest 200 230 2,000 -200 Level Potomac TRACON
Thu 06:13:56 PM 39.1167 -76.6000 322° Northwest 155 178 1,600 -500 Descending Potomac TRACON
Thu 06:14:56 PM 39.1500 -76.6167 339° North 124 143 1,000 -600 Descending Potomac TRACON
Thu 06:16:00 PM 39.1667 -76.6667 339° North  Level FlightAware Approximate
Thu 06:23:00 PM 39.1754 -76.6683 339° North  Level Estimated

Login

Don't have an account? Register now (free) for customized features, flight alerts, and more!